Time;durP1;ratioP1;P1;durP2;ratioP2;P2;SDS_P1;SDS_P2;PMS_P1;PMS_P2;Temp;Humidity;BMP_temperature;BMP_pressure;BME280_temperature;BME280_humidity;BME280_pressure;Samples;Min_cycle;Max_cycle;Signal;HPM_P1;HPM_P2
2023/07/30 00:03:39;;;;;;;3.30;2.42;;;;;;;22.33;71.02;99526.16;10336250;28;20056;-73
2023/07/30 00:08:41;;;;;;;2.22;2.03;;;;;;;22.31;70.83;99520.09;10340432;28;20206;-73
2023/07/30 00:13:42;;;;;;;3.08;2.00;;;;;;;22.23;71.01;99516.59;10338844;28;20042;-72
2023/07/30 00:18:44;;;;;;;2.42;2.00;;;;;;;22.26;71.24;99528.88;10337273;28;20562;-71
2023/07/30 00:23:45;;;;;;;2.08;1.80;;;;;;;22.16;71.86;99525.81;10335917;28;20049;-74
2023/07/30 00:28:47;;;;;;;2.05;1.85;;;;;;;22.21;71.82;99531.41;10340776;28;20097;-74
2023/07/30 00:33:48;;;;;;;2.42;1.77;;;;;;;22.17;72.02;99539.16;10338832;28;20112;-72
2023/07/30 00:38:50;;;;;;;2.47;1.85;;;;;;;22.11;72.58;99542.72;10346868;28;20057;-77
2023/07/30 00:43:51;;;;;;;2.75;1.90;;;;;;;22.06;73.09;99545.25;10341896;28;20411;-74
2023/07/30 00:48:53;;;;;;;4.80;2.45;;;;;;;22.04;73.41;99544.66;10347956;28;20270;-74
2023/07/30 00:53:54;;;;;;;2.15;1.67;;;;;;;21.99;74.37;99549.88;10339573;28;20061;-75
2023/07/30 00:58:56;;;;;;;2.17;1.83;;;;;;;21.97;74.75;99549.25;10338991;28;20062;-72
2023/07/30 01:03:57;;;;;;;2.35;2.15;;;;;;;21.88;75.19;99548.66;10341278;28;20115;-73
2023/07/30 01:08:59;;;;;;;3.17;2.08;;;;;;;21.84;75.76;99569.94;10340697;28;20132;-73
2023/07/30 01:14:00;;;;;;;2.95;2.30;;;;;;;21.82;75.67;99569.31;10342239;28;20065;-73
2023/07/30 01:19:04;;;;;;;2.28;1.98;;;;;;;21.82;76.10;99573.91;10340453;28;20570;-73
2023/07/30 01:24:05;;;;;;;3.67;2.38;;;;;;;21.72;76.01;99579.75;10341101;28;20058;-74
2023/07/30 01:29:11;;;;;;;2.70;1.60;;;;;;;21.63;76.52;99570.22;10338894;28;20077;-72
2023/07/30 01:34:13;;;;;;;2.65;1.50;;;;;;;21.66;77.36;99594.16;10339577;28;20053;-74
2023/07/30 01:39:15;;;;;;;5.85;2.40;;;;;;;21.65;76.67;99595.22;10331308;28;20104;-73
2023/07/30 01:44:17;;;;;;;2.05;1.83;;;;;;;21.64;77.45;99607.09;10335184;28;20050;-71
2023/07/30 01:49:18;;;;;;;1.90;1.80;;;;;;;21.62;76.93;99614.56;10341990;28;20061;-73
2023/07/30 01:54:19;;;;;;;2.25;1.67;;;;;;;21.61;76.81;99613.75;10343713;28;20042;-73
2023/07/30 01:59:21;;;;;;;3.40;2.10;;;;;;;21.59;76.76;99612.28;10335910;28;20048;-71
2023/07/30 02:04:22;;;;;;;2.80;1.45;;;;;;;21.54;76.71;99621.06;10341940;28;20053;-75
2023/07/30 02:09:24;;;;;;;4.28;1.98;;;;;;;21.48;76.81;99620.00;10342920;28;20050;-69
2023/07/30 02:14:25;;;;;;;2.13;1.85;;;;;;;21.42;77.67;99622.72;10341684;28;20679;-71
2023/07/30 02:19:27;;;;;;;2.33;1.63;;;;;;;21.43;78.80;99618.97;10336950;28;20065;-73
2023/07/30 02:24:28;;;;;;;2.83;1.80;;;;;;;21.37;78.16;99626.03;10341143;28;20136;-75
2023/07/30 02:29:31;;;;;;;1.88;1.60;;;;;;;21.36;79.43;99627.06;10343888;28;20050;-73
2023/07/30 02:34:32;;;;;;;3.30;1.75;;;;;;;21.33;79.28;99635.63;10337110;28;20042;-73
2023/07/30 02:39:33;;;;;;;2.00;1.38;;;;;;;21.35;79.79;99650.63;10374391;28;20038;-75
2023/07/30 02:44:35;;;;;;;4.65;1.70;;;;;;;21.37;79.97;99650.41;10378827;28;20045;-74
2023/07/30 02:49:36;;;;;;;2.30;1.50;;;;;;;21.35;79.36;99657.91;10346322;28;20129;-76
2023/07/30 02:54:38;;;;;;;1.45;1.25;;;;;;;21.36;79.10;99664.97;10343543;28;20138;-75
2023/07/30 02:59:40;;;;;;;2.30;1.17;;;;;;;21.33;78.42;99652.72;10348746;28;20073;-75
2023/07/30 03:04:41;;;;;;;2.55;1.25;;;;;;;21.31;77.27;99670.19;10349482;28;20471;-74
2023/07/30 03:09:43;;;;;;;2.03;1.27;;;;;;;21.28;76.98;99673.31;10339958;28;20049;-73
2023/07/30 03:14:44;;;;;;;1.88;1.10;;;;;;;21.28;76.91;99666.03;10344061;28;20168;-72
2023/07/30 03:19:46;;;;;;;2.25;0.88;;;;;;;21.14;76.09;99656.25;10342307;28;20041;-74
2023/07/30 03:24:48;;;;;;;1.60;1.08;;;;;;;21.30;76.72;99677.50;10342019;28;20420;-73
2023/07/30 03:29:50;;;;;;;1.58;1.15;;;;;;;21.25;77.07;99665.63;10348699;28;20544;-75
2023/07/30 03:34:51;;;;;;;1.75;1.10;;;;;;;21.22;78.21;99666.03;10354896;28;20058;-72
2023/07/30 03:39:52;;;;;;;2.33;1.23;;;;;;;21.18;78.67;99669.16;10339285;28;20054;-72
2023/07/30 03:44:54;;;;;;;2.08;1.35;;;;;;;21.15;79.20;99656.03;10341693;28;20054;-72
2023/07/30 03:49:55;;;;;;;2.22;1.10;;;;;;;21.13;77.75;99663.50;10339655;28;20512;-74
2023/07/30 03:54:56;;;;;;;2.35;1.30;;;;;;;21.07;78.90;99653.53;10342313;28;20242;-72
2023/07/30 03:59:58;;;;;;;2.20;1.70;;;;;;;20.98;78.78;99657.47;10341942;28;20045;-73
2023/07/30 04:04:59;;;;;;;2.08;1.30;;;;;;;20.99;79.41;99661.84;10338180;28;20411;-73
2023/07/30 04:10:00;;;;;;;1.67;1.30;;;;;;;20.91;79.01;99664.72;10336252;28;20054;-74
2023/07/30 04:15:02;;;;;;;1.95;1.58;;;;;;;20.92;79.57;99683.47;10334358;28;20096;-72
2023/07/30 04:20:04;;;;;;;3.17;1.33;;;;;;;20.87;79.19;99677.84;10343035;28;20504;-74
2023/07/30 04:25:07;;;;;;;1.85;1.17;;;;;;;20.85;79.01;99685.31;10349672;28;20050;-74
2023/07/30 04:30:09;;;;;;;1.20;0.80;;;;;;;20.80;77.63;99683.22;10346978;28;20528;-70
2023/07/30 04:35:11;;;;;;;1.50;1.02;;;;;;;20.77;77.49;99694.47;10338962;28;20128;-72
2023/07/30 04:40:12;;;;;;;0.93;0.80;;;;;;;20.73;78.09;99695.91;10337978;28;20053;-75
2023/07/30 04:45:14;;;;;;;1.10;1.00;;;;;;;20.70;78.86;99688.19;10339344;28;20276;-73
2023/07/30 04:50:15;;;;;;;1.92;0.80;;;;;;;20.64;79.68;99687.13;10347040;28;20049;-73
2023/07/30 04:55:16;;;;;;;1.85;0.98;;;;;;;20.70;79.90;99701.72;10347104;28;20488;-72
2023/07/30 05:00:18;;;;;;;2.08;1.13;;;;;;;20.71;80.44;99692.56;10338522;28;20120;-73
2023/07/30 05:05:20;;;;;;;1.60;1.30;;;;;;;20.68;80.75;99694.84;10335144;28;20104;-72
2023/07/30 05:10:21;;;;;;;2.35;0.88;;;;;;;20.64;81.31;99702.50;10339558;28;20112;-72
2023/07/30 05:15:22;;;;;;;1.85;1.10;;;;;;;20.64;81.73;99697.94;10342056;28;20077;-74
2023/07/30 05:20:24;;;;;;;2.05;1.10;;;;;;;20.66;82.41;99698.59;10336248;28;20560;-74
2023/07/30 05:25:25;;;;;;;1.42;0.98;;;;;;;20.75;82.25;99688.44;10331994;28;20386;-73
2023/07/30 05:30:27;;;;;;;2.28;1.15;;;;;;;20.74;81.25;99692.16;10338252;28;20053;-72
2023/07/30 05:35:28;;;;;;;2.78;1.10;;;;;;;20.72;81.16;99683.44;10368958;28;20169;-73
2023/07/30 05:40:35;;;;;;;2.63;0.90;;;;;;;20.85;81.42;99685.31;10348058;28;20052;-73
2023/07/30 05:45:39;;;;;;;1.48;0.75;;;;;;;20.80;81.14;99680.53;10331943;28;20132;-73
2023/07/30 05:50:41;;;;;;;2.90;1.25;;;;;;;20.70;80.83;99671.97;10330338;28;20504;-73
2023/07/30 05:55:43;;;;;;;0.90;0.52;;;;;;;20.71;81.30;99675.53;10335156;28;20157;-73
2023/07/30 06:00:44;;;;;;;1.88;0.90;;;;;;;20.73;81.70;99674.28;10333806;28;20142;-74
2023/07/30 06:05:46;;;;;;;1.63;0.80;;;;;;;20.77;82.36;99691.75;10332423;28;20133;-72
2023/07/30 06:10:47;;;;;;;1.20;0.80;;;;;;;20.83;81.93;99685.53;10332763;28;20069;-73
2023/07/30 06:15:48;;;;;;;1.33;0.70;;;;;;;20.88;81.61;99684.09;10341671;28;20523;-72
2023/07/30 06:20:50;;;;;;;1.88;0.85;;;;;;;20.98;81.01;99692.63;10327162;28;20516;-74
2023/07/30 06:25:52;;;;;;;1.13;0.65;;;;;;;21.06;80.60;99699.72;10342795;28;20590;-75
2023/07/30 06:30:53;;;;;;;2.17;1.08;;;;;;;21.18;79.10;99701.63;10329398;28;20064;-76
2023/07/30 06:35:55;;;;;;;1.50;0.68;;;;;;;21.29;77.75;99710.19;10342096;28;20206;-78
2023/07/30 06:40:57;;;;;;;2.20;1.02;;;;;;;21.29;77.95;99710.19;10340090;28;20062;-78
2023/07/30 06:45:59;;;;;;;1.38;1.00;;;;;;;21.29;76.78;99712.88;10338640;28;20092;-78
2023/07/30 06:51:01;;;;;;;1.58;0.85;;;;;;;21.23;76.47;99711.84;10330891;28;20057;-75
2023/07/30 06:56:03;;;;;;;2.00;0.95;;;;;;;21.26;76.55;99721.38;10339723;28;20069;-76
2023/07/30 07:01:04;;;;;;;3.28;1.30;;;;;;;21.19;76.09;99708.69;10344966;28;20050;-77
2023/07/30 07:06:06;;;;;;;1.15;0.70;;;;;;;21.27;77.38;99717.66;10335319;28;20143;-71
2023/07/30 07:11:07;;;;;;;2.28;1.00;;;;;;;21.36;78.29;99722.66;10338581;28;20074;-74
2023/07/30 07:16:09;;;;;;;1.92;0.93;;;;;;;21.46;78.51;99733.06;10332443;28;20058;-72
2023/07/30 07:21:10;;;;;;;5.20;0.98;;;;;;;21.43;77.09;99744.31;10334854;28;20046;-76
2023/07/30 07:26:12;;;;;;;2.55;0.98;;;;;;;21.41;75.97;99748.28;10336716;28;20064;-73
2023/07/30 07:31:13;;;;;;;1.63;0.75;;;;;;;21.38;72.87;99765.78;10330930;28;20065;-74
2023/07/30 07:36:15;;;;;;;1.15;0.60;;;;;;;21.37;70.96;99770.34;10331919;28;20073;-74
2023/07/30 07:41:17;;;;;;;0.95;0.80;;;;;;;21.35;69.53;99771.59;10330710;28;20398;-79
2023/07/30 07:46:19;;;;;;;0.98;0.70;;;;;;;21.34;70.23;99772.63;10329509;28;20183;-73
2023/07/30 07:51:20;;;;;;;2.33;1.10;;;;;;;21.34;68.68;99764.50;10345667;28;20064;-76
2023/07/30 07:56:21;;;;;;;0.95;0.70;;;;;;;21.41;72.17;99742.84;10336684;28;20654;-77
2023/07/30 08:01:23;;;;;;;1.15;0.68;;;;;;;21.51;72.55;99730.63;10345534;28;20061;-77
2023/07/30 08:06:25;;;;;;;1.80;0.75;;;;;;;21.53;70.71;99720.41;10335709;28;20133;-76
2023/07/30 08:11:26;;;;;;;1.52;0.95;;;;;;;21.59;69.25;99732.28;10341338;28;20054;-78
2023/07/30 08:16:27;;;;;;;3.45;1.75;;;;;;;21.57;70.19;99722.69;10374064;28;21100;-79
2023/07/30 08:21:29;;;;;;;1.35;0.90;;;;;;;21.50;70.31;99723.53;10347947;28;20053;-77
2023/07/30 08:26:32;;;;;;;2.28;0.85;;;;;;;21.62;71.52;99731.88;10348231;28;20050;-73
2023/07/30 08:31:33;;;;;;;1.85;0.90;;;;;;;21.67;71.68;99728.53;10369113;28;20103;-75
2023/07/30 08:36:35;;;;;;;1.58;1.00;;;;;;;21.78;70.13;99738.72;10376164;28;20076;-78
2023/07/30 08:41:37;;;;;;;0.68;0.52;;;;;;;21.81;68.11;99726.66;10340948;28;20128;-80
2023/07/30 08:46:39;;;;;;;1.15;0.85;;;;;;;21.82;70.45;99721.00;10346258;28;20084;-79
2023/07/30 08:51:42;;;;;;;1.98;1.05;;;;;;;21.98;71.35;99713.47;10324974;28;20307;-77
2023/07/30 08:56:43;;;;;;;1.20;0.80;;;;;;;22.09;71.29;99715.56;10334120;28;20053;-77
2023/07/30 09:01:47;;;;;;;1.35;0.80;;;;;;;22.04;71.88;99718.09;10334615;28;20504;-78
2023/07/30 09:06:50;;;;;;;1.77;0.80;;;;;;;21.97;71.24;99709.13;10335980;28;20062;-74
2023/07/30 09:11:55;;;;;;;1.30;0.82;;;;;;;21.93;70.18;99710.59;10344484;28;20154;-77
2023/07/30 09:16:58;;;;;;;2.10;0.90;;;;;;;21.92;70.57;99706.19;10339604;28;20057;-79
2023/07/30 09:21:59;;;;;;;1.00;0.77;;;;;;;21.80;69.88;99701.44;10342199;28;20049;-79
2023/07/30 09:27:02;;;;;;;1.10;0.65;;;;;;;21.96;70.34;99712.88;10340601;28;20069;-77
2023/07/30 09:32:07;;;;;;;1.65;1.00;;;;;;;21.92;69.19;99700.78;10335634;28;20061;-74
2023/07/30 09:37:09;;;;;;;2.53;1.05;;;;;;;21.84;73.04;99709.97;10325874;28;20127;-74
2023/07/30 09:42:10;;;;;;;2.22;1.00;;;;;;;21.68;76.51;99686.88;10329032;28;20055;-71
2023/07/30 09:47:12;;;;;;;2.80;1.92;;;;;;;21.60;81.72;99697.91;10328597;28;20050;-76
2023/07/30 09:52:14;;;;;;;1.63;0.85;;;;;;;21.28;81.58;99660.59;10334843;28;20144;-78
2023/07/30 09:57:15;;;;;;;2.40;0.57;;;;;;;20.83;87.37;99707.16;10335677;28;20061;-72
2023/07/30 10:02:17;;;;;;;1.67;0.30;;;;;;;19.74;89.61;99721.31;10324468;28;20057;-73
2023/07/30 10:07:21;;;;;;;1.58;0.40;;;;;;;19.45;92.21;99762.81;10317565;28;20508;-72
2023/07/30 10:12:28;;;;;;;1.58;0.60;;;;;;;19.73;95.32;99803.38;10322340;28;20061;-73
2023/07/30 10:17:32;;;;;;;1.88;0.70;;;;;;;20.08;95.58;99816.97;10340691;28;20108;-77
2023/07/30 10:22:40;;;;;;;1.35;0.60;;;;;;;20.23;92.68;99823.09;10310903;28;20046;-74
2023/07/30 10:27:49;;;;;;;1.13;0.38;;;;;;;20.38;89.08;99825.69;10329114;28;20069;-73
2023/07/30 10:32:59;;;;;;;1.27;0.30;;;;;;;20.37;87.95;99858.31;10326418;28;20054;-72
2023/07/30 10:38:24;;;;;;;1.10;0.40;;;;;;;20.54;89.05;99858.88;10317351;28;20512;-74
2023/07/30 10:43:30;;;;;;;0.30;0.13;;;;;;;20.71;87.64;99865.66;10319190;28;20393;-73
2023/07/30 10:48:34;;;;;;;0.57;0.20;;;;;;;20.90;85.24;99865.97;10318729;28;20042;-74
2023/07/30 10:53:36;;;;;;;2.58;1.60;;;;;;;21.02;82.45;99872.47;10321317;28;20099;-73
2023/07/30 10:58:38;;;;;;;1.52;0.63;;;;;;;21.10;76.78;99879.56;10313717;28;20046;-72
2023/07/30 11:03:40;;;;;;;0.77;0.30;;;;;;;21.12;74.39;99877.50;10300947;28;20061;-73
2023/07/30 11:08:42;;;;;;;2.00;0.80;;;;;;;20.73;75.28;99901.47;10313338;28;20077;-74
2023/07/30 11:13:46;;;;;;;2.80;0.57;;;;;;;20.88;79.99;99898.59;10311535;28;20131;-75
2023/07/30 11:18:47;;;;;;;;;;;;;;;20.98;81.42;99909.91;10313817;28;20444;-74
2023/07/30 11:23:51;;;;;;;0.70;0.38;;;;;;;21.05;74.22;99915.34;10348182;28;19921;-72
2023/07/30 11:28:52;;;;;;;2.97;0.57;;;;;;;21.42;74.09;99910.50;10360776;28;20050;-72
2023/07/30 11:33:54;;;;;;;2.17;1.08;;;;;;;21.61;72.09;99908.09;10312796;28;20054;-73
2023/07/30 11:38:56;;;;;;;2.05;0.52;;;;;;;21.52;68.22;99886.63;10309225;28;20517;-74
2023/07/30 11:43:57;;;;;;;2.00;0.82;;;;;;;21.64;64.06;99905.00;10317073;28;20061;-75
2023/07/30 11:49:18;;;;;;;3.63;0.80;;;;;;;21.64;58.31;99902.28;10309123;28;20065;-76
2023/07/30 11:54:22;;;;;;;2.70;1.02;;;;;;;21.77;59.27;99913.16;10298408;28;20049;-78
2023/07/30 11:59:24;;;;;;;1.92;1.17;;;;;;;21.92;60.51;99925.66;10307684;28;20344;-76
2023/07/30 12:04:30;;;;;;;1.88;0.60;;;;;;;22.06;57.28;99928.19;10316263;28;20757;-75
2023/07/30 12:09:35;;;;;;;2.13;0.80;;;;;;;22.09;56.57;99931.53;10322568;28;20148;-76
2023/07/30 12:14:56;;;;;;;2.00;0.60;;;;;;;22.31;55.87;99929.44;10323588;28;20160;-73
2023/07/30 12:20:06;;;;;;;2.13;1.00;;;;;;;22.23;56.26;99928.63;10328385;28;20119;-76
2023/07/30 12:25:10;;;;;;;2.75;0.50;;;;;;;22.04;55.87;99951.13;10332828;28;20049;-77
2023/07/30 12:30:27;;;;;;;3.13;0.77;;;;;;;21.73;55.17;99916.47;10330372;28;20061;-76
2023/07/30 12:35:30;;;;;;;4.07;1.02;;;;;;;21.87;54.50;99942.53;10317819;28;20061;-77
2023/07/30 12:40:33;;;;;;;3.10;1.30;;;;;;;21.89;54.17;99954.84;10339354;28;20046;-75
2023/07/30 12:45:39;;;;;;;3.10;0.82;;;;;;;21.92;53.18;99952.75;10316150;28;20042;-74
2023/07/30 12:50:41;;;;;;;2.67;0.60;;;;;;;22.20;52.83;99956.16;10315183;28;20500;-75
2023/07/30 12:55:42;;;;;;;1.90;0.55;;;;;;;22.54;51.29;99951.59;10329828;28;20057;-74
2023/07/30 13:00:44;;;;;;;4.18;0.75;;;;;;;22.79;49.20;99969.94;10331845;28;20065;-74
2023/07/30 13:05:46;;;;;;;0.75;0.28;;;;;;;22.71;47.25;99962.00;10322971;28;20054;-74
2023/07/30 13:10:47;;;;;;;2.65;1.05;;;;;;;22.66;47.81;99967.25;10328936;28;20050;-72
2023/07/30 13:15:48;;;;;;;3.30;0.60;;;;;;;22.49;49.27;99967.66;10323282;28;20046;-72
2023/07/30 13:20:50;;;;;;;5.53;0.75;;;;;;;22.20;48.81;99958.88;10282639;28;20512;-76
2023/07/30 13:25:51;;;;;;;4.03;1.90;;;;;;;22.12;48.50;99964.47;10314756;28;20493;-73
2023/07/30 13:30:53;;;;;;;2.90;0.73;;;;;;;22.35;49.36;99974.13;10319616;28;20960;-80
2023/07/30 13:35:54;;;;;;;2.15;1.20;;;;;;;22.64;50.90;99972.88;10317099;28;20439;-78
2023/07/30 13:40:58;;;;;;;2.08;0.90;;;;;;;22.98;48.45;99970.13;10302185;28;20561;-76
2023/07/30 13:46:00;;;;;;;2.55;0.68;;;;;;;23.02;47.54;99963.22;10347271;28;20064;-75
2023/07/30 13:51:01;;;;;;;2.63;0.77;;;;;;;23.04;46.38;99969.25;10334817;28;20053;-77
2023/07/30 13:56:03;;;;;;;4.10;0.93;;;;;;;23.07;47.52;99957.97;10329970;28;20065;-77
2023/07/30 14:01:06;;;;;;;2.65;1.00;;;;;;;23.14;47.85;99950.69;10323498;28;20058;-75
2023/07/30 14:06:07;;;;;;;2.85;0.80;;;;;;;23.26;46.93;99965.25;10330600;28;20046;-76
2023/07/30 14:11:09;;;;;;;4.07;1.08;;;;;;;23.13;45.44;99954.44;10362413;28;20058;-77
2023/07/30 14:16:10;;;;;;;3.00;1.10;;;;;;;23.03;46.97;99943.16;10337318;28;20096;-74
2023/07/30 14:21:13;;;;;;;4.32;1.02;;;;;;;22.96;46.48;99951.31;10327140;28;20070;-73
2023/07/30 14:26:14;;;;;;;2.67;1.03;;;;;;;22.92;47.21;99953.66;10330107;28;21842;-73
2023/07/30 14:31:16;;;;;;;4.05;0.90;;;;;;;22.85;46.01;99963.66;10326392;28;20496;-74
2023/07/30 14:36:17;;;;;;;4.15;0.82;;;;;;;22.77;45.00;99966.59;10328555;28;20408;-74
2023/07/30 14:41:18;;;;;;;3.60;1.55;;;;;;;22.66;46.55;99956.41;10332455;28;20058;-75
2023/07/30 14:46:21;;;;;;;5.05;1.70;;;;;;;22.54;45.63;99961.63;10334627;28;20684;-75
2023/07/30 14:51:23;;;;;;;4.03;0.70;;;;;;;22.56;46.38;99964.94;10334873;28;20469;-74
2023/07/30 14:56:24;;;;;;;2.95;0.60;;;;;;;22.68;46.65;99965.16;10333904;28;20054;-73
2023/07/30 15:01:29;;;;;;;3.58;0.90;;;;;;;22.73;46.36;99954.50;10331467;28;20077;-73
2023/07/30 15:06:32;;;;;;;2.72;0.80;;;;;;;22.67;46.40;99956.19;10332892;28;20595;-74
2023/07/30 15:11:33;;;;;;;3.55;0.70;;;;;;;22.74;46.98;99953.44;10329865;28;20610;-74
2023/07/30 15:16:34;;;;;;;2.78;1.00;;;;;;;22.73;46.37;99954.50;10328260;28;20240;-76
2023/07/30 15:21:37;;;;;;;4.40;1.30;;;;;;;22.64;45.89;99943.03;10326714;28;20192;-73
2023/07/30 15:26:38;;;;;;;4.63;1.00;;;;;;;22.62;45.58;99947.00;10322988;28;20123;-74
2023/07/30 15:31:41;;;;;;;4.28;0.88;;;;;;;22.60;45.69;99933.66;10311272;28;20062;-75
2023/07/30 15:36:42;;;;;;;1.98;0.43;;;;;;;22.62;45.76;99936.16;10313580;28;20049;-73
2023/07/30 15:41:43;;;;;;;3.47;0.73;;;;;;;22.65;44.29;99941.16;10320087;28;20076;-74
2023/07/30 15:46:45;;;;;;;2.28;0.68;;;;;;;22.59;44.05;99932.81;10325984;28;21098;-74
2023/07/30 15:51:47;;;;;;;2.38;0.60;;;;;;;22.59;44.65;99934.69;10324281;28;20058;-76
2023/07/30 15:56:48;;;;;;;4.35;1.13;;;;;;;22.58;43.44;99930.31;10323499;28;20073;-76
2023/07/30 16:01:49;;;;;;;4.53;1.00;;;;;;;22.49;43.87;99921.56;10327006;28;20160;-74
2023/07/30 16:06:53;;;;;;;1.92;0.88;;;;;;;22.46;43.84;99932.84;10340677;28;20066;-76
2023/07/30 16:11:54;;;;;;;2.95;0.80;;;;;;;22.47;43.49;99934.47;10342452;28;20072;-74
2023/07/30 16:16:56;;;;;;;1.92;1.00;;;;;;;22.40;43.01;99934.50;10322240;28;20180;-76
2023/07/30 16:21:58;;;;;;;3.28;1.13;;;;;;;22.40;43.72;99939.09;10326827;28;20229;-79
2023/07/30 16:26:59;;;;;;;4.28;0.70;;;;;;;22.49;44.43;99948.69;10322917;28;20810;-75
2023/07/30 16:32:01;;;;;;;3.72;0.90;;;;;;;22.45;42.88;99947.44;10332636;28;20366;-75
2023/07/30 16:37:02;;;;;;;3.30;0.90;;;;;;;22.44;43.32;99940.31;10329508;28;20513;-74
2023/07/30 16:42:04;;;;;;;1.90;0.73;;;;;;;22.38;43.31;99935.75;10325425;28;20061;-74
2023/07/30 16:47:05;;;;;;;3.50;1.23;;;;;;;22.37;43.39;99939.50;10332080;28;20534;-78
2023/07/30 16:52:07;;;;;;;2.63;0.82;;;;;;;22.34;42.59;99946.19;10332371;28;20646;-75
2023/07/30 16:57:09;;;;;;;2.22;0.80;;;;;;;22.27;42.69;99941.78;10373533;28;20045;-80
2023/07/30 17:02:10;;;;;;;5.93;1.20;;;;;;;22.21;43.03;99933.41;10381590;28;20056;-76
2023/07/30 17:07:11;;;;;;;4.20;1.00;;;;;;;22.22;43.46;99936.97;10331096;28;20053;-76
2023/07/30 17:12:13;;;;;;;4.25;0.70;;;;;;;22.25;42.84;99953.66;10326891;28;20096;-74
2023/07/30 17:17:14;;;;;;;7.60;4.07;;;;;;;22.23;45.20;99947.59;10324044;28;20133;-74
2023/07/30 17:22:16;;;;;;;2.28;1.60;;;;;;;22.24;43.82;99940.31;10319914;28;20633;-72
2023/07/30 17:27:17;;;;;;;1.85;0.88;;;;;;;22.22;44.30;99950.53;10325643;28;20193;-74
2023/07/30 17:32:19;;;;;;;1.92;0.70;;;;;;;22.24;44.22;99959.28;10324108;28;20062;-76
2023/07/30 17:37:22;;;;;;;2.67;0.82;;;;;;;22.20;43.84;99950.75;10328720;28;20376;-78
2023/07/30 17:42:23;;;;;;;2.87;1.07;;;;;;;22.21;44.71;99940.72;10325826;28;20622;-76
2023/07/30 17:47:24;;;;;;;3.85;0.85;;;;;;;22.20;44.45;99966.16;10346184;28;20083;-75
2023/07/30 17:52:26;;;;;;;3.78;1.30;;;;;;;22.13;44.66;99965.28;10323171;28;20123;-75
2023/07/30 17:57:27;;;;;;;2.28;1.13;;;;;;;22.15;44.77;99964.06;10328371;28;20147;-75
2023/07/30 18:02:29;;;;;;;3.30;0.77;;;;;;;22.15;44.36;99963.22;10331775;28;20128;-72
2023/07/30 18:07:30;;;;;;;1.77;0.95;;;;;;;22.04;43.61;99962.78;10340182;28;20136;-74
2023/07/30 18:12:32;;;;;;;2.33;0.93;;;;;;;22.01;44.84;99981.34;10325517;28;20060;-74
2023/07/30 18:17:33;;;;;;;1.30;0.60;;;;;;;21.94;44.88;99973.19;10327785;28;20496;-76
2023/07/30 18:22:35;;;;;;;2.58;0.80;;;;;;;21.90;45.05;99971.91;10329387;28;20687;-75
2023/07/30 18:27:36;;;;;;;3.30;1.70;;;;;;;21.93;45.33;99978.81;10328734;28;21215;-74
2023/07/30 18:32:38;;;;;;;4.82;1.35;;;;;;;21.87;45.75;99972.34;10331938;28;20357;-78
2023/07/30 18:37:39;;;;;;;2.67;0.90;;;;;;;21.80;45.34;99968.75;10325156;28;20049;-77
2023/07/30 18:42:41;;;;;;;2.00;0.90;;;;;;;21.77;45.84;99978.16;10321070;28;20587;-80
2023/07/30 18:47:43;;;;;;;2.78;0.68;;;;;;;21.68;46.18;99972.09;10328238;28;20057;-78
2023/07/30 18:52:45;;;;;;;1.98;0.88;;;;;;;21.77;45.90;99982.72;10328991;28;20045;-74
2023/07/30 18:57:48;;;;;;;1.98;1.02;;;;;;;21.71;46.14;99987.09;10324174;28;20042;-79
2023/07/30 19:02:49;;;;;;;2.10;0.93;;;;;;;21.70;47.08;99990.84;10325158;28;20077;-75
2023/07/30 19:07:51;;;;;;;3.65;1.27;;;;;;;21.62;46.79;99999.13;10324922;28;20847;-74
2023/07/30 19:12:52;;;;;;;2.22;0.93;;;;;;;21.61;47.50;100002.91;10319408;28;20061;-75
2023/07/30 19:17:58;;;;;;;3.55;1.35;;;;;;;21.56;46.56;100002.66;10326496;28;22587;-76
2023/07/30 19:22:59;;;;;;;3.40;0.98;;;;;;;21.50;47.79;100007.84;10333863;28;20057;-72
2023/07/30 19:28:05;;;;;;;2.33;0.77;;;;;;;21.42;46.66;100016.09;10335727;28;20062;-79
2023/07/30 19:33:07;;;;;;;2.05;0.80;;;;;;;21.48;47.01;100022.56;10333253;28;20504;-76
2023/07/30 19:38:10;;;;;;;2.05;0.85;;;;;;;21.45;46.98;100017.56;10328915;28;20057;-75
2023/07/30 19:43:12;;;;;;;2.25;1.33;;;;;;;21.36;47.11;100016.88;10337622;28;20057;-74
2023/07/30 19:48:13;;;;;;;3.72;1.17;;;;;;;21.42;47.91;100028.78;10374773;28;20049;-79
2023/07/30 19:53:15;;;;;;;2.70;0.98;;;;;;;21.39;47.64;100016.50;10364946;28;20064;-73
2023/07/30 19:58:26;;;;;;;4.85;1.48;;;;;;;21.37;47.45;100021.28;10331827;28;20049;-72
2023/07/30 20:03:29;;;;;;;3.35;1.45;;;;;;;21.31;47.60;100022.91;10328495;28;20072;-73
2023/07/30 20:08:31;;;;;;;2.40;1.07;;;;;;;21.25;47.73;100023.72;10326911;28;20058;-74
2023/07/30 20:13:33;;;;;;;5.38;1.00;;;;;;;21.22;48.21;100024.09;10328622;28;20499;-74
2023/07/30 20:18:35;;;;;;;3.42;1.23;;;;;;;21.19;47.83;100021.81;10329822;28;20058;-75
2023/07/30 20:23:37;;;;;;;2.33;1.13;;;;;;;21.16;48.37;100020.31;10322019;28;20062;-70
2023/07/30 20:28:38;;;;;;;2.85;1.10;;;;;;;21.12;48.48;100016.34;10333649;28;20058;-75
2023/07/30 20:33:40;;;;;;;3.28;0.80;;;;;;;21.12;48.14;100019.06;10324088;28;20060;-74
2023/07/30 20:38:43;;;;;;;4.65;1.77;;;;;;;21.13;48.29;100014.47;10328792;28;20893;-74
2023/07/30 20:43:44;;;;;;;4.30;1.87;;;;;;;21.10;48.49;100015.69;10326573;28;20357;-76
2023/07/30 20:48:45;;;;;;;4.32;1.27;;;;;;;21.07;48.21;100009.88;10320500;28;20473;-71
2023/07/30 20:53:47;;;;;;;3.38;1.05;;;;;;;21.00;48.75;100015.22;10334102;28;20128;-73
2023/07/30 20:58:48;;;;;;;2.65;1.15;;;;;;;20.97;48.58;100021.88;10337665;28;20132;-71
2023/07/30 21:03:50;;;;;;;3.03;1.50;;;;;;;20.90;49.11;100009.34;10334628;28;20053;-71
2023/07/30 21:08:51;;;;;;;4.10;0.90;;;;;;;20.87;49.39;100020.53;10333809;28;20156;-72
2023/07/30 21:13:53;;;;;;;1.27;0.93;;;;;;;20.78;49.37;100017.16;10334026;28;20041;-73
2023/07/30 21:18:54;;;;;;;2.50;1.00;;;;;;;20.73;49.61;100015.03;10333829;28;20061;-72
2023/07/30 21:23:55;;;;;;;3.00;0.88;;;;;;;20.70;49.67;100010.00;10334036;28;20076;-75
2023/07/30 21:28:57;;;;;;;3.25;1.00;;;;;;;20.70;49.82;100014.56;10354635;28;20042;-75
2023/07/30 21:33:58;;;;;;;4.50;0.93;;;;;;;20.69;50.08;100013.75;10355418;28;20054;-71
2023/07/30 21:39:00;;;;;;;2.95;0.98;;;;;;;20.67;50.07;100004.97;10334868;28;20061;-73
2023/07/30 21:44:02;;;;;;;2.35;0.90;;;;;;;20.63;50.37;100001.00;10333908;28;20776;-75
2023/07/30 21:49:04;;;;;;;2.78;1.02;;;;;;;20.57;50.70;99994.47;10332067;28;20041;-76
2023/07/30 21:54:05;;;;;;;1.75;0.82;;;;;;;20.57;50.88;99993.66;10329835;28;20062;-74
2023/07/30 21:59:07;;;;;;;4.63;1.42;;;;;;;20.58;50.95;99989.91;10329951;28;20076;-72
2023/07/30 22:04:08;;;;;;;2.55;1.00;;;;;;;20.53;51.27;99982.38;10329748;28;20050;-72
2023/07/30 22:09:09;;;;;;;3.95;1.10;;;;;;;20.52;51.33;99980.69;10329730;28;20054;-72
2023/07/30 22:14:11;;;;;;;2.35;0.82;;;;;;;20.47;51.90;99989.41;10331366;28;20418;-71
2023/07/30 22:19:12;;;;;;;2.25;0.82;;;;;;;20.39;51.71;99991.44;10329421;28;20054;-75
2023/07/30 22:24:14;;;;;;;1.98;0.93;;;;;;;20.38;52.68;99993.28;10327120;28;20057;-73
2023/07/30 22:29:15;;;;;;;2.85;1.02;;;;;;;20.40;53.44;99987.66;10330730;28;20512;-71
2023/07/30 22:34:17;;;;;;;2.90;1.20;;;;;;;20.34;53.33;99970.34;10341486;28;20058;-75
2023/07/30 22:39:19;;;;;;;3.23;1.20;;;;;;;20.31;53.74;99960.78;10381054;28;20033;-75
2023/07/30 22:44:21;;;;;;;3.10;1.00;;;;;;;20.28;54.24;99961.19;10347410;28;20130;-71
2023/07/30 22:49:22;;;;;;;4.93;1.17;;;;;;;20.25;54.68;99958.88;10332823;28;20539;-71
2023/07/30 22:54:24;;;;;;;1.95;0.80;;;;;;;20.25;55.05;99958.00;10335895;28;20124;-72
2023/07/30 22:59:25;;;;;;;2.95;1.30;;;;;;;20.21;55.42;99948.66;10335490;28;20600;-74
2023/07/30 23:04:26;;;;;;;3.75;1.25;;;;;;;20.13;55.82;99961.25;10334390;28;20067;-71
2023/07/30 23:09:28;;;;;;;3.50;1.17;;;;;;;20.09;56.23;99957.25;10337580;28;20053;-72
2023/07/30 23:14:29;;;;;;;2.60;1.17;;;;;;;20.03;56.24;99952.63;10335785;28;20081;-70
2023/07/30 23:19:31;;;;;;;2.75;1.55;;;;;;;20.03;56.92;99943.69;10338237;28;20100;-74
2023/07/30 23:24:33;;;;;;;6.22;1.70;;;;;;;20.03;56.89;99949.94;10333742;28;20060;-72